RJFU(METAR)
05/24 13:00
METAR RJFU 240400Z 25006KT 210V300 9999 FEW030 27/16 Q1015 RMK
1CU030 A2998=
戻る
トップページへ戻る
IMOC Co,.Ltd.